createdAt,value
2022-08-17T00:00:34.312Z,19.81
2022-08-17T00:03:09.993Z,19.62
2022-08-17T00:05:41.507Z,19.56
2022-08-17T00:08:09.543Z,19.49
2022-08-17T00:10:39.483Z,19.52
2022-08-17T00:13:09.520Z,19.53
2022-08-17T00:15:37.918Z,19.60
2022-08-17T00:19:06.236Z,19.53
2022-08-17T00:20:54.620Z,19.61
2022-08-17T00:23:22.449Z,19.55
2022-08-17T00:25:52.514Z,19.47
2022-08-17T00:28:21.606Z,19.41
2022-08-17T00:30:52.914Z,19.41
2022-08-17T00:33:24.151Z,19.46
2022-08-17T00:35:52.189Z,19.50
2022-08-17T00:38:20.734Z,19.46
2022-08-17T00:40:52.694Z,19.52
2022-08-17T00:43:30.002Z,19.62
2022-08-17T00:45:58.975Z,19.49
2022-08-17T00:48:30.182Z,19.38
2022-08-17T00:51:10.476Z,19.30
2022-08-17T00:53:42.207Z,19.45
2022-08-17T00:56:20.957Z,19.53
2022-08-17T00:58:50.436Z,19.45
2022-08-17T01:01:21.236Z,19.47
2022-08-17T01:03:51.402Z,19.47
2022-08-17T01:06:19.363Z,19.45
2022-08-17T01:08:47.650Z,19.42
2022-08-17T01:11:17.177Z,19.38
2022-08-17T01:13:45.335Z,19.40
2022-08-17T01:16:19.063Z,19.36
2022-08-17T01:18:49.959Z,19.29
2022-08-17T01:21:25.744Z,19.23
2022-08-17T01:23:54.926Z,19.21
2022-08-17T01:26:23.855Z,19.23
2022-08-17T01:28:55.416Z,19.24
2022-08-17T01:31:25.178Z,19.23
2022-08-17T01:33:53.239Z,19.28
2022-08-17T01:36:21.342Z,19.30
2022-08-17T01:38:49.157Z,19.24
2022-08-17T01:41:20.386Z,19.21
2022-08-17T01:43:52.317Z,19.21
2022-08-17T01:46:23.658Z,19.17
2022-08-17T01:48:51.643Z,19.18
2022-08-17T01:51:20.484Z,19.20
2022-08-17T01:53:51.444Z,19.23
2022-08-17T01:56:24.303Z,19.26
2022-08-17T01:58:53.286Z,19.19
2022-08-17T02:01:24.582Z,19.15
2022-08-17T02:03:59.253Z,19.11
2022-08-17T02:06:30.496Z,19.06
2022-08-17T02:09:02.213Z,18.99
2022-08-17T02:11:34.194Z,18.91
2022-08-17T02:14:04.061Z,18.85
2022-08-17T02:16:36.711Z,18.76
2022-08-17T02:19:07.508Z,18.77
2022-08-17T02:21:36.452Z,18.81
2022-08-17T02:24:05.843Z,18.71
2022-08-17T02:26:35.094Z,18.75
2022-08-17T02:29:03.976Z,18.67
2022-08-17T02:31:32.347Z,18.61
2022-08-17T02:34:04.394Z,18.62
2022-08-17T02:36:33.986Z,18.68
2022-08-17T02:39:02.506Z,18.71
2022-08-17T02:41:30.402Z,18.71
2022-08-17T02:43:59.605Z,18.66
2022-08-17T02:46:28.277Z,18.56
2022-08-17T02:48:56.264Z,18.54
2022-08-17T02:51:24.055Z,18.56
2022-08-17T02:53:51.902Z,18.50
2022-08-17T02:56:19.831Z,18.53
2022-08-17T02:58:47.697Z,18.60
2022-08-17T03:01:17.064Z,18.64
2022-08-17T03:03:45.090Z,18.57
2022-08-17T03:06:12.887Z,18.55
2022-08-17T03:08:40.725Z,18.54
2022-08-17T03:11:08.684Z,18.53
2022-08-17T03:13:36.498Z,18.49
2022-08-17T03:16:04.782Z,18.46
2022-08-17T03:18:33.912Z,18.45
2022-08-17T03:21:04.303Z,18.49
2022-08-17T03:23:33.668Z,18.48
2022-08-17T03:26:01.875Z,18.55
2022-08-17T03:28:30.079Z,18.55
2022-08-17T03:30:57.837Z,18.60
2022-08-17T03:33:25.784Z,18.62
2022-08-17T03:35:54.932Z,18.63
2022-08-17T03:38:23.256Z,18.63
2022-08-17T03:40:57.713Z,18.53
2022-08-17T03:43:31.644Z,18.67
2022-08-17T03:46:28.726Z,18.95
2022-08-17T03:49:24.225Z,18.89
2022-08-17T03:52:11.205Z,18.82
2022-08-17T03:54:56.984Z,18.83
2022-08-17T03:57:25.699Z,18.75
2022-08-17T03:59:53.876Z,18.79
2022-08-17T04:02:25.263Z,18.93
2022-08-17T04:04:53.832Z,18.85
2022-08-17T04:07:25.135Z,18.74
2022-08-17T04:09:53.257Z,18.78
2022-08-17T04:12:23.621Z,18.85
2022-08-17T04:14:54.754Z,18.88
2022-08-17T04:17:25.305Z,18.76
2022-08-17T04:19:53.877Z,18.69
2022-08-17T04:22:31.906Z,18.74
2022-08-17T04:25:06.418Z,18.73
2022-08-17T04:27:34.485Z,18.84
2022-08-17T04:30:02.751Z,18.87
2022-08-17T04:33:00.766Z,19.03
2022-08-17T04:35:21.367Z,19.15
2022-08-17T04:37:51.515Z,19.03
2022-08-17T04:40:38.632Z,19.06
2022-08-17T04:43:09.325Z,19.06
2022-08-17T04:45:40.855Z,19.14
2022-08-17T04:48:34.725Z,19.24
2022-08-17T04:51:09.137Z,19.32
2022-08-17T04:53:38.963Z,19.27
2022-08-17T04:56:07.287Z,19.29
2022-08-17T04:58:35.151Z,19.42
2022-08-17T05:01:03.074Z,19.36
2022-08-17T05:03:31.259Z,19.37
2022-08-17T05:05:59.060Z,19.40
2022-08-17T05:08:27.017Z,19.29
2022-08-17T05:10:56.272Z,19.27
2022-08-17T05:13:26.048Z,19.22
2022-08-17T05:15:57.151Z,19.13
2022-08-17T05:18:25.452Z,19.11
2022-08-17T05:20:54.150Z,19.10
2022-08-17T05:23:24.324Z,19.17
2022-08-17T05:25:55.203Z,19.14
2022-08-17T05:28:28.072Z,19.22
2022-08-17T05:31:01.191Z,19.24
2022-08-17T05:33:31.555Z,19.60
2022-08-17T05:36:00.683Z,19.81
2022-08-17T05:38:30.376Z,20.23
2022-08-17T05:40:59.077Z,20.58
2022-08-17T05:43:31.062Z,20.87
2022-08-17T05:46:03.927Z,21.36
2022-08-17T05:48:40.094Z,21.62
2022-08-17T05:51:38.814Z,21.81
2022-08-17T05:54:16.560Z,21.74
2022-08-17T05:57:07.308Z,21.94
2022-08-17T05:59:49.256Z,21.51
2022-08-17T06:02:25.433Z,21.50
2022-08-17T06:05:11.536Z,21.58
2022-08-17T06:07:49.489Z,21.80
2022-08-17T06:10:29.034Z,21.99
2022-08-17T06:13:10.791Z,22.20
2022-08-17T06:15:54.104Z,22.08
2022-08-17T06:18:25.405Z,21.93
2022-08-17T06:20:57.392Z,22.05
2022-08-17T06:23:31.371Z,22.26
2022-08-17T06:26:05.223Z,22.47
2022-08-17T06:28:39.339Z,22.36
2022-08-17T06:31:16.595Z,22.48
2022-08-17T06:33:45.575Z,22.58
2022-08-17T06:36:24.000Z,22.58
2022-08-17T06:39:04.082Z,22.54
2022-08-17T06:41:41.763Z,22.66
2022-08-17T06:44:42.279Z,22.57
2022-08-17T06:47:11.109Z,22.74
2022-08-17T06:49:49.546Z,22.60
2022-08-17T06:52:43.387Z,22.68
2022-08-17T06:55:19.421Z,22.84
2022-08-17T06:57:51.027Z,22.96
2022-08-17T07:00:22.241Z,22.93
2022-08-17T07:02:57.798Z,23.10
2022-08-17T07:05:27.756Z,23.36
2022-08-17T07:08:04.994Z,23.24
2022-08-17T07:10:38.971Z,23.40
2022-08-17T07:13:25.408Z,23.31
2022-08-17T07:15:57.720Z,23.26
2022-08-17T07:18:33.125Z,23.18
2022-08-17T07:21:11.927Z,23.16
2022-08-17T07:24:04.292Z,23.03
2022-08-17T07:26:32.095Z,23.32
2022-08-17T07:29:02.267Z,23.37
2022-08-17T07:31:33.665Z,23.33
2022-08-17T07:34:08.314Z,23.39
2022-08-17T07:36:36.146Z,23.54
2022-08-17T07:39:06.070Z,23.77
2022-08-17T07:41:58.072Z,24.10
2022-08-17T07:44:27.613Z,24.10
2022-08-17T07:47:13.669Z,24.25
2022-08-17T07:49:46.130Z,24.64
2022-08-17T07:52:51.186Z,24.79
2022-08-17T07:55:40.494Z,24.87
2022-08-17T07:58:09.348Z,24.97
2022-08-17T08:00:37.252Z,25.17
2022-08-17T08:03:16.876Z,25.27
2022-08-17T08:05:56.212Z,25.13
2022-08-17T08:08:34.017Z,25.31
2022-08-17T08:11:07.156Z,25.29
2022-08-17T08:13:40.438Z,25.16
2022-08-17T08:16:30.173Z,24.85
2022-08-17T08:19:02.533Z,24.79
2022-08-17T08:21:43.430Z,24.66
2022-08-17T08:24:34.741Z,24.75
2022-08-17T08:27:15.967Z,24.55
2022-08-17T08:29:53.969Z,24.45
2022-08-17T08:32:34.526Z,24.18
2022-08-17T08:35:06.530Z,23.97
2022-08-17T08:37:47.486Z,24.53
2022-08-17T08:40:33.425Z,24.59
2022-08-17T08:43:16.138Z,24.70
2022-08-17T08:45:56.577Z,24.73
2022-08-17T08:49:00.980Z,24.96
2022-08-17T08:51:46.152Z,24.70
2022-08-17T08:54:28.457Z,24.56
2022-08-17T09:00:05.132Z,24.30
2022-08-17T09:03:08.682Z,24.35
2022-08-17T09:05:52.724Z,24.20
2022-08-17T09:08:31.817Z,24.16
2022-08-17T09:11:06.911Z,24.05
2022-08-17T09:13:44.835Z,23.98
2022-08-17T09:16:17.332Z,24.02
2022-08-17T09:19:02.199Z,23.92
2022-08-17T09:21:47.956Z,24.21
2022-08-17T09:24:24.809Z,24.64
2022-08-17T09:26:59.368Z,24.90
2022-08-17T09:29:35.012Z,24.84
2022-08-17T09:32:05.786Z,24.71
2022-08-17T09:34:38.609Z,24.84
2022-08-17T09:37:20.149Z,24.86
2022-08-17T09:39:56.076Z,25.19
2022-08-17T09:42:31.084Z,25.66
2022-08-17T09:45:10.826Z,25.61
2022-08-17T09:47:45.485Z,25.56
2022-08-17T09:50:20.103Z,25.78
2022-08-17T09:53:08.971Z,26.81
2022-08-17T09:55:49.554Z,26.20
2022-08-17T09:58:25.697Z,26.55
2022-08-17T10:01:04.046Z,26.61
2022-08-17T10:03:52.718Z,26.69
2022-08-17T10:06:25.391Z,26.86
2022-08-17T10:09:06.365Z,26.67
2022-08-17T10:11:54.580Z,26.89
2022-08-17T10:14:36.228Z,27.54
2022-08-17T10:17:11.148Z,27.41
2022-08-17T10:19:44.277Z,27.54
2022-08-17T10:22:37.939Z,28.11
2022-08-17T10:25:37.565Z,27.88
2022-08-17T10:28:19.972Z,28.39
2022-08-17T10:31:10.393Z,28.11
2022-08-17T10:33:55.889Z,28.76
2022-08-17T10:36:30.021Z,28.95
2022-08-17T10:39:10.612Z,28.87
2022-08-17T10:41:42.750Z,28.69
2022-08-17T10:44:40.358Z,28.15
2022-08-17T10:47:14.380Z,27.31
2022-08-17T10:49:47.576Z,27.34
2022-08-17T10:52:52.123Z,27.96
2022-08-17T10:55:21.304Z,27.69
2022-08-17T10:57:51.212Z,27.69
2022-08-17T11:01:12.584Z,27.61
2022-08-17T11:03:54.954Z,27.95
2022-08-17T11:06:32.067Z,27.57
2022-08-17T11:09:28.527Z,27.32
2022-08-17T11:12:21.403Z,27.10
2022-08-17T11:15:00.357Z,26.84
2022-08-17T11:18:15.885Z,26.44
2022-08-17T11:21:20.319Z,26.74
2022-08-17T11:24:15.338Z,26.72
2022-08-17T11:26:48.791Z,26.68
2022-08-17T11:29:24.762Z,26.41
2022-08-17T11:32:02.910Z,26.76
2022-08-17T11:34:33.019Z,27.26
2022-08-17T11:37:21.607Z,27.59
2022-08-17T11:40:12.202Z,28.24
2022-08-17T11:43:03.318Z,28.14
2022-08-17T11:45:51.661Z,28.17
2022-08-17T11:48:50.699Z,28.05
2022-08-17T11:51:34.551Z,28.09
2022-08-17T11:54:32.736Z,27.89
2022-08-17T11:56:55.483Z,28.60
2022-08-17T12:00:00.255Z,28.74
2022-08-17T12:02:47.349Z,29.31
2022-08-17T12:05:30.955Z,28.95
2022-08-17T12:08:08.429Z,28.31
2022-08-17T12:10:49.882Z,28.15
2022-08-17T12:13:19.137Z,28.11
2022-08-17T12:15:50.349Z,28.71
2022-08-17T12:18:24.440Z,28.68
2022-08-17T12:21:26.186Z,28.91
2022-08-17T12:24:00.505Z,29.08
2022-08-17T12:26:33.160Z,28.57
2022-08-17T12:29:03.121Z,28.28
2022-08-17T12:31:36.769Z,28.31
2022-08-17T12:34:05.474Z,28.05
2022-08-17T12:36:34.022Z,28.07
2022-08-17T12:39:12.805Z,27.88
2022-08-17T12:41:47.737Z,28.47
2022-08-17T12:44:20.799Z,28.63
2022-08-17T12:46:55.524Z,28.68
2022-08-17T12:49:30.730Z,28.19
2022-08-17T12:52:05.630Z,28.40
2022-08-17T12:54:41.225Z,28.75
2022-08-17T12:57:14.918Z,28.70
2022-08-17T12:59:46.174Z,28.81
2022-08-17T13:02:22.843Z,28.56
2022-08-17T13:04:51.211Z,28.66
2022-08-17T13:07:30.990Z,28.59
2022-08-17T13:09:59.110Z,28.60
2022-08-17T13:12:30.387Z,28.62
2022-08-17T13:14:58.633Z,29.59
2022-08-17T13:17:30.029Z,29.54
2022-08-17T13:19:58.246Z,29.42
2022-08-17T13:22:28.062Z,29.75
2022-08-17T13:24:58.589Z,29.87
2022-08-17T13:27:29.806Z,29.60
2022-08-17T13:30:00.865Z,29.77
2022-08-17T13:32:43.997Z,29.73
2022-08-17T13:35:50.104Z,29.91
2022-08-17T13:38:40.413Z,29.97
2022-08-17T13:41:08.806Z,29.69
2022-08-17T13:43:50.526Z,29.95
2022-08-17T13:46:21.515Z,29.96
2022-08-17T13:49:00.109Z,29.90
2022-08-17T13:51:34.736Z,29.75
2022-08-17T13:54:07.743Z,29.56
2022-08-17T13:56:47.690Z,29.59
2022-08-17T13:59:36.354Z,29.62
2022-08-17T14:02:18.592Z,29.77
2022-08-17T14:04:49.388Z,30.00
2022-08-17T14:07:29.433Z,30.77
2022-08-17T14:10:01.896Z,30.11
2022-08-17T14:12:32.982Z,30.35
2022-08-17T14:15:02.763Z,30.49
2022-08-17T14:17:35.072Z,30.96
2022-08-17T14:20:07.732Z,32.12
2022-08-17T14:22:38.101Z,33.49
2022-08-17T14:25:10.321Z,34.25
2022-08-17T14:27:51.736Z,35.55
2022-08-17T14:30:25.023Z,37.14
2022-08-17T14:32:53.638Z,39.23
2022-08-17T14:35:23.735Z,41.43
2022-08-17T14:37:52.646Z,39.98
2022-08-17T14:40:24.572Z,40.22
2022-08-17T14:42:55.017Z,40.82
2022-08-17T14:45:30.293Z,40.98
2022-08-17T14:48:02.647Z,39.91
2022-08-17T14:50:30.497Z,38.06
2022-08-17T14:53:01.421Z,34.92
2022-08-17T14:55:29.732Z,35.44
2022-08-17T14:57:57.589Z,36.35
2022-08-17T15:00:27.070Z,35.76
2022-08-17T15:02:56.554Z,37.67
2022-08-17T15:05:26.820Z,40.06
2022-08-17T15:07:55.695Z,37.92
2022-08-17T15:10:25.851Z,36.70
2022-08-17T15:12:54.411Z,36.09
2022-08-17T15:15:22.239Z,34.28
2022-08-17T15:17:52.168Z,37.58
2022-08-17T15:20:22.017Z,39.72
2022-08-17T15:22:50.928Z,38.97
2022-08-17T15:25:19.882Z,35.46
2022-08-17T15:27:47.817Z,36.26
2022-08-17T15:30:16.126Z,39.61
2022-08-17T15:32:51.415Z,38.41
2022-08-17T15:35:27.288Z,38.58
2022-08-17T15:37:58.200Z,34.72
2022-08-17T15:40:26.044Z,32.10
2022-08-17T15:42:53.947Z,31.67
2022-08-17T15:45:24.827Z,30.86
2022-08-17T15:47:53.166Z,30.48
2022-08-17T15:50:21.010Z,30.47
2022-08-17T15:52:55.982Z,30.23
2022-08-17T15:55:24.429Z,30.33
2022-08-17T15:57:52.994Z,30.01
2022-08-17T16:00:23.548Z,29.88
2022-08-17T16:03:44.370Z,30.06
2022-08-17T16:05:40.994Z,30.16
2022-08-17T16:08:11.086Z,30.19
2022-08-17T16:10:39.289Z,29.89
2022-08-17T16:13:17.532Z,29.93
2022-08-17T16:15:51.148Z,30.56
2022-08-17T16:18:30.997Z,31.45
2022-08-17T16:21:19.762Z,30.76
2022-08-17T16:23:50.189Z,30.47
2022-08-17T16:26:19.061Z,30.17
2022-08-17T16:28:47.366Z,30.54
2022-08-17T16:31:15.620Z,30.20
2022-08-17T16:34:15.662Z,30.44
2022-08-17T16:36:32.497Z,30.55
2022-08-17T16:39:01.728Z,30.56
2022-08-17T16:41:44.429Z,30.37
2022-08-17T16:44:15.336Z,30.34
2022-08-17T16:46:45.678Z,30.38
2022-08-17T16:49:35.384Z,30.43
2022-08-17T16:52:04.247Z,30.23
2022-08-17T16:54:35.240Z,30.17
2022-08-17T16:57:04.887Z,30.29
2022-08-17T16:59:42.162Z,30.01
2022-08-17T17:02:14.969Z,30.06
2022-08-17T17:04:51.067Z,30.00
2022-08-17T17:07:34.727Z,29.90
2022-08-17T17:10:08.601Z,29.85
2022-08-17T17:13:01.586Z,29.98
2022-08-17T17:15:47.196Z,29.86
2022-08-17T17:18:16.795Z,29.85
2022-08-17T17:20:53.474Z,29.62
2022-08-17T17:23:33.191Z,29.77
2022-08-17T17:26:10.920Z,29.72
2022-08-17T17:28:49.462Z,29.69
2022-08-17T17:31:20.533Z,29.66
2022-08-17T17:33:52.665Z,29.38
2022-08-17T17:36:27.641Z,29.41
2022-08-17T17:39:01.325Z,29.39
2022-08-17T17:41:34.562Z,29.27
2022-08-17T17:44:07.839Z,29.15
2022-08-17T17:46:39.421Z,29.11
2022-08-17T17:49:10.064Z,28.99
2022-08-17T17:52:07.922Z,28.97
2022-08-17T17:54:51.088Z,29.01
2022-08-17T17:57:29.714Z,28.91
2022-08-17T18:00:04.379Z,28.79
2022-08-17T18:02:52.131Z,28.76
2022-08-17T18:05:35.892Z,28.63
2022-08-17T18:08:13.156Z,28.54
2022-08-17T18:10:49.137Z,28.55
2022-08-17T18:13:27.779Z,28.45
2022-08-17T18:16:00.884Z,28.32
2022-08-17T18:18:38.520Z,28.23
2022-08-17T18:21:16.651Z,28.08
2022-08-17T18:23:50.794Z,27.98
2022-08-17T18:26:37.513Z,27.77
2022-08-17T18:29:22.196Z,27.59
2022-08-17T18:31:52.508Z,27.48
2022-08-17T18:37:16.090Z,27.08
2022-08-17T18:39:47.522Z,26.91
2022-08-17T18:42:26.179Z,26.81
2022-08-17T18:44:56.512Z,26.62
2022-08-17T18:47:26.631Z,26.46
2022-08-17T18:49:57.788Z,26.32
2022-08-17T18:52:28.779Z,26.15
2022-08-17T18:55:08.509Z,26.00
2022-08-17T18:57:40.641Z,25.79
2022-08-17T19:00:18.193Z,25.59
2022-08-17T19:02:52.849Z,25.56
2022-08-17T19:05:32.361Z,25.55
2022-08-17T19:08:17.196Z,25.43
2022-08-17T19:10:47.407Z,25.34
2022-08-17T19:13:23.885Z,25.23
2022-08-17T19:16:11.394Z,25.23
2022-08-17T19:18:47.357Z,25.12
2022-08-17T19:21:21.174Z,25.07
2022-08-17T19:23:54.585Z,25.03
2022-08-17T19:26:54.572Z,25.03
2022-08-17T19:29:19.567Z,25.02
2022-08-17T19:31:52.762Z,24.96
2022-08-17T19:34:33.598Z,24.92
2022-08-17T19:37:08.903Z,24.86
2022-08-17T19:39:47.991Z,24.75
2022-08-17T19:42:28.323Z,24.67
2022-08-17T19:45:04.392Z,24.61
2022-08-17T19:47:54.792Z,24.56
2022-08-17T19:50:41.019Z,24.46
2022-08-17T19:53:21.201Z,24.61
2022-08-17T19:55:57.322Z,24.70
2022-08-17T19:58:39.135Z,24.63
2022-08-17T20:01:13.828Z,24.78
2022-08-17T20:03:52.077Z,24.75
2022-08-17T20:06:22.416Z,24.63
2022-08-17T20:08:58.482Z,24.48
2022-08-17T20:11:33.876Z,24.31
2022-08-17T20:14:07.827Z,24.18
2022-08-17T20:16:35.702Z,23.96
2022-08-17T20:19:08.980Z,23.84
2022-08-17T20:21:41.635Z,23.74
2022-08-17T20:24:20.894Z,23.63
2022-08-17T20:26:58.121Z,23.59
2022-08-17T20:29:39.640Z,23.47
2022-08-17T20:32:19.707Z,23.48
2022-08-17T20:34:49.466Z,23.35
2022-08-17T20:37:30.787Z,23.29
2022-08-17T20:40:31.006Z,23.25
2022-08-17T20:42:59.839Z,23.09
2022-08-17T20:46:03.553Z,22.95
2022-08-17T20:48:39.475Z,22.86
2022-08-17T20:51:19.005Z,22.76
2022-08-17T20:54:28.695Z,22.60
2022-08-17T20:56:58.647Z,22.45
2022-08-17T20:59:56.204Z,22.47
2022-08-17T21:02:26.561Z,22.45
2022-08-17T21:05:21.594Z,22.46
2022-08-17T21:07:59.571Z,22.43
2022-08-17T21:10:37.971Z,22.46
2022-08-17T21:13:30.210Z,22.55
2022-08-17T21:16:01.818Z,22.47
2022-08-17T21:18:38.758Z,22.48
2022-08-17T21:21:22.122Z,22.71
2022-08-17T21:24:11.998Z,22.87
2022-08-17T21:26:53.707Z,23.05
2022-08-17T21:29:30.943Z,23.15
2022-08-17T21:32:24.154Z,23.13
2022-08-17T21:35:26.677Z,23.00
2022-08-17T21:38:02.327Z,23.13
2022-08-17T21:40:34.758Z,23.15
2022-08-17T21:43:17.915Z,23.10
2022-08-17T21:45:56.580Z,22.93
2022-08-17T21:48:27.088Z,22.69
2022-08-17T21:51:03.641Z,22.62
2022-08-17T21:53:39.560Z,22.57
2022-08-17T21:56:11.063Z,22.57
2022-08-17T21:58:45.394Z,22.49
2022-08-17T22:01:25.514Z,22.44
2022-08-17T22:04:01.342Z,22.44
2022-08-17T22:06:34.546Z,22.53
2022-08-17T22:09:13.041Z,22.66
2022-08-17T22:12:09.029Z,22.62
2022-08-17T22:14:52.154Z,22.84
2022-08-17T22:17:24.056Z,23.11
2022-08-17T22:19:54.998Z,23.22
2022-08-17T22:22:33.469Z,23.19
2022-08-17T22:25:02.941Z,23.18
2022-08-17T22:27:54.330Z,23.14
2022-08-17T22:30:33.014Z,23.09
2022-08-17T22:33:02.789Z,23.00
2022-08-17T22:35:40.437Z,22.91
2022-08-17T22:38:30.084Z,22.82
2022-08-17T22:41:31.889Z,22.75
2022-08-17T22:44:09.837Z,22.61
2022-08-17T22:46:41.974Z,22.58
2022-08-17T22:49:09.833Z,22.50
2022-08-17T22:51:38.199Z,22.43
2022-08-17T22:54:37.254Z,22.27
2022-08-17T22:57:24.069Z,22.18
2022-08-17T22:59:56.067Z,22.05
2022-08-17T23:02:26.518Z,21.98
2022-08-17T23:04:59.246Z,21.96
2022-08-17T23:07:26.993Z,21.94
2022-08-17T23:09:55.332Z,21.78
2022-08-17T23:12:27.321Z,21.87
2022-08-17T23:15:02.222Z,21.96
2022-08-17T23:17:36.914Z,21.98
2022-08-17T23:20:08.529Z,21.84
2022-08-17T23:22:51.973Z,21.88
2022-08-17T23:25:26.973Z,21.79
2022-08-17T23:27:54.879Z,21.90
2022-08-17T23:30:25.359Z,21.73
2022-08-17T23:32:54.209Z,21.59
2022-08-17T23:35:39.198Z,21.49
2022-08-17T23:38:09.875Z,21.36
2022-08-17T23:40:39.391Z,21.52
2022-08-17T23:43:17.622Z,21.53
2022-08-17T23:45:54.909Z,21.53
2022-08-17T23:48:32.508Z,21.41
2022-08-17T23:51:04.218Z,21.29
2022-08-17T23:53:36.646Z,21.19
2022-08-17T23:56:09.466Z,21.15
2022-08-17T23:58:39.114Z,21.06
